sensor_id;sensor_type;location;lat;lon;timestamp;pressure;altitude;pressure_sealevel;temperature;humidity
67738;BME280;54534;43.612;1.572;2023-02-28T00:02:13;99424.59;;;18.47;38.47
67738;BME280;54534;43.612;1.572;2023-02-28T00:04:38;99425.56;;;18.46;38.49
67738;BME280;54534;43.612;1.572;2023-02-28T00:07:04;99424.84;;;18.44;38.39
67738;BME280;54534;43.612;1.572;2023-02-28T00:09:29;99424.84;;;18.44;38.64
67738;BME280;54534;43.612;1.572;2023-02-28T00:11:55;99436.44;;;18.43;38.57
67738;BME280;54534;43.612;1.572;2023-02-28T00:14:20;99434.75;;;18.42;38.41
67738;BME280;54534;43.612;1.572;2023-02-28T00:16:45;99438.38;;;18.41;38.25
67738;BME280;54534;43.612;1.572;2023-02-28T00:19:11;99436.66;;;18.40;38.08
67738;BME280;54534;43.612;1.572;2023-02-28T00:21:38;99427.97;;;18.38;38.02
67738;BME280;54534;43.612;1.572;2023-02-28T00:24:06;99433.28;;;18.38;38.02
67738;BME280;54534;43.612;1.572;2023-02-28T00:26:32;99437.75;;;18.37;37.98
67738;BME280;54534;43.612;1.572;2023-02-28T00:28:57;99444.06;;;18.36;37.92
67738;BME280;54534;43.612;1.572;2023-02-28T00:31:23;99436.16;;;18.34;37.74
67738;BME280;54534;43.612;1.572;2023-02-28T00:33:48;99432.66;;;18.34;38.02
67738;BME280;54534;43.612;1.572;2023-02-28T00:36:14;99428.31;;;18.33;38.13
67738;BME280;54534;43.612;1.572;2023-02-28T00:38:40;99431.94;;;18.32;38.01
67738;BME280;54534;43.612;1.572;2023-02-28T00:41:06;99442.56;;;18.32;37.66
67738;BME280;54534;43.612;1.572;2023-02-28T00:43:34;99442.56;;;18.32;38.01
67738;BME280;54534;43.612;1.572;2023-02-28T00:46:00;99450.69;;;18.30;37.90
67738;BME280;54534;43.612;1.572;2023-02-28T00:48:26;99453.34;;;18.30;37.76
67738;BME280;54534;43.612;1.572;2023-02-28T00:50:51;99459.63;;;18.29;37.53
67738;BME280;54534;43.612;1.572;2023-02-28T00:53:17;99469.41;;;18.29;37.90
67738;BME280;54534;43.612;1.572;2023-02-28T00:55:42;99469.53;;;18.27;37.83
67738;BME280;54534;43.612;1.572;2023-02-28T00:58:08;99469.53;;;18.27;37.88
67738;BME280;54534;43.612;1.572;2023-02-28T01:00:33;99476.81;;;18.25;37.40
67738;BME280;54534;43.612;1.572;2023-02-28T01:02:58;99465.19;;;18.26;37.50
67738;BME280;54534;43.612;1.572;2023-02-28T01:05:24;99464.56;;;18.22;37.56
67738;BME280;54534;43.612;1.572;2023-02-28T01:07:49;99475.22;;;18.22;37.37
67738;BME280;54534;43.612;1.572;2023-02-28T01:10:15;99478.84;;;18.21;37.31
67738;BME280;54534;43.612;1.572;2023-02-28T01:12:40;99473.59;;;18.20;37.46
67738;BME280;54534;43.612;1.572;2023-02-28T01:15:06;99479.81;;;18.20;37.28
67738;BME280;54534;43.612;1.572;2023-02-28T01:17:32;99481.59;;;18.20;37.25
67738;BME280;54534;43.612;1.572;2023-02-28T01:19:57;99479.88;;;18.19;37.76
67738;BME280;54534;43.612;1.572;2023-02-28T01:22:22;99479.03;;;18.18;37.66
67738;BME280;54534;43.612;1.572;2023-02-28T01:24:48;99489.66;;;18.18;37.16
67738;BME280;54534;43.612;1.572;2023-02-28T01:27:13;99488.84;;;18.18;37.21
67738;BME280;54534;43.612;1.572;2023-02-28T01:29:39;99487.13;;;18.17;37.66
67738;BME280;54534;43.612;1.572;2023-02-28T01:32:04;99488.09;;;18.16;37.13
67738;BME280;54534;43.612;1.572;2023-02-28T01:34:30;99488.94;;;18.16;37.30
67738;BME280;54534;43.612;1.572;2023-02-28T01:36:55;99501.41;;;18.16;37.21
67738;BME280;54534;43.612;1.572;2023-02-28T01:39:20;99500.56;;;18.15;37.20
67738;BME280;54534;43.612;1.572;2023-02-28T01:41:46;99503.22;;;18.15;37.08
67738;BME280;54534;43.612;1.572;2023-02-28T01:47:14;99521.94;;;18.14;37.25
67738;BME280;54534;43.612;1.572;2023-02-28T01:49:40;99509.50;;;18.14;37.15
67738;BME280;54534;43.612;1.572;2023-02-28T01:52:06;99513.97;;;18.14;37.09
67738;BME280;54534;43.612;1.572;2023-02-28T01:54:33;99513.97;;;18.14;36.95
67738;BME280;54534;43.612;1.572;2023-02-28T01:57:09;99519.41;;;18.12;37.45
67738;BME280;54534;43.612;1.572;2023-02-28T01:59:43;99519.41;;;18.12;36.89
67738;BME280;54534;43.612;1.572;2023-02-28T02:02:14;99519.50;;;18.10;36.98
67738;BME280;54534;43.612;1.572;2023-02-28T02:05:00;99521.22;;;18.11;36.74
67738;BME280;54534;43.612;1.572;2023-02-28T02:07:31;99519.50;;;18.10;36.82
67738;BME280;54534;43.612;1.572;2023-02-28T02:18:37;99526.75;;;18.08;37.00
67738;BME280;54534;43.612;1.572;2023-02-28T02:26:58;99521.66;;;18.05;36.81
67738;BME280;54534;43.612;1.572;2023-02-28T02:36:07;99514.75;;;18.03;36.74
67738;BME280;54534;43.612;1.572;2023-02-28T02:42:19;99518.28;;;18.03;36.78
67738;BME280;54534;43.612;1.572;2023-02-28T02:44:21;99512.09;;;18.03;36.86
67738;BME280;54534;43.612;1.572;2023-02-28T02:46:49;99502.44;;;18.01;36.69
67738;BME280;54534;43.612;1.572;2023-02-28T02:49:28;99484.66;;;18.02;36.63
67738;BME280;54534;43.612;1.572;2023-02-28T02:51:56;99496.25;;;18.01;36.80
67738;BME280;54534;43.612;1.572;2023-02-28T02:54:27;99491.78;;;18.01;36.68
67738;BME280;54534;43.612;1.572;2023-02-28T02:56:56;99504.97;;;18.03;36.49
67738;BME280;54534;43.612;1.572;2023-02-28T02:59:22;99502.44;;;18.01;36.54
67738;BME280;54534;43.612;1.572;2023-02-28T03:01:58;99506.78;;;18.03;36.36
67738;BME280;54534;43.612;1.572;2023-02-28T03:04:26;99501.56;;;18.01;36.45
67738;BME280;54534;43.612;1.572;2023-02-28T03:06:54;99499.78;;;18.01;36.59
67738;BME280;54534;43.612;1.572;2023-02-28T03:09:22;99499.78;;;18.01;36.63
67738;BME280;54534;43.612;1.572;2023-02-28T03:11:49;99488.28;;;18.01;36.29
67738;BME280;54534;43.612;1.572;2023-02-28T03:27:29;99479.56;;;17.99;36.32
67738;BME280;54534;43.612;1.572;2023-02-28T03:30:05;99476.13;;;17.97;36.19
67738;BME280;54534;43.612;1.572;2023-02-28T03:32:36;99483.16;;;17.98;36.04
67738;BME280;54534;43.612;1.572;2023-02-28T03:37:39;99482.22;;;17.99;36.44
67738;BME280;54534;43.612;1.572;2023-02-28T03:40:13;99488.50;;;17.98;35.89
67738;BME280;54534;43.612;1.572;2023-02-28T03:42:42;99484.13;;;17.97;36.07
67738;BME280;54534;43.612;1.572;2023-02-28T03:45:14;99485.97;;;17.96;36.12
67738;BME280;54534;43.612;1.572;2023-02-28T03:47:47;99485.97;;;17.96;36.37
67738;BME280;54534;43.612;1.572;2023-02-28T03:55:28;99495.75;;;17.96;36.17
67738;BME280;54534;43.612;1.572;2023-02-28T04:01:08;99498.41;;;17.96;35.97
67738;BME280;54534;43.612;1.572;2023-02-28T04:03:38;99499.25;;;17.96;35.94
67738;BME280;54534;43.612;1.572;2023-02-28T04:06:05;99502.75;;;17.97;36.09
67738;BME280;54534;43.612;1.572;2023-02-28T04:08:32;99498.41;;;17.96;36.21
67738;BME280;54534;43.612;1.572;2023-02-28T04:11:04;99496.59;;;17.96;36.00
67738;BME280;54534;43.612;1.572;2023-02-28T04:13:31;99500.09;;;17.97;36.23
67738;BME280;54534;43.612;1.572;2023-02-28T04:15:57;99501.91;;;17.96;36.17
67738;BME280;54534;43.612;1.572;2023-02-28T04:18:22;99502.75;;;17.97;35.88
67738;BME280;54534;43.612;1.572;2023-02-28T04:20:48;99497.44;;;17.97;35.83
67738;BME280;54534;43.612;1.572;2023-02-28T04:23:13;99501.91;;;17.96;36.18
67738;BME280;54534;43.612;1.572;2023-02-28T04:25:38;99504.59;;;17.96;36.05
67738;BME280;54534;43.612;1.572;2023-02-28T04:28:05;99501.91;;;17.96;35.60
67738;BME280;54534;43.612;1.572;2023-02-28T04:30:31;99510.84;;;17.95;36.12
67738;BME280;54534;43.612;1.572;2023-02-28T04:32:58;99510.84;;;17.95;36.11
67738;BME280;54534;43.612;1.572;2023-02-28T04:35:23;99513.50;;;17.95;35.60
67738;BME280;54534;43.612;1.572;2023-02-28T04:37:48;99509.03;;;17.96;35.65
67738;BME280;54534;43.612;1.572;2023-02-28T04:40:14;99514.47;;;17.94;35.94
67738;BME280;54534;43.612;1.572;2023-02-28T04:42:39;99520.63;;;17.95;35.61
67738;BME280;54534;43.612;1.572;2023-02-28T04:45:05;99501.16;;;17.94;35.61
67738;BME280;54534;43.612;1.572;2023-02-28T04:47:31;99503.81;;;17.94;35.62
67738;BME280;54534;43.612;1.572;2023-02-28T04:49:56;99507.34;;;17.95;35.68
67738;BME280;54534;43.612;1.572;2023-02-28T04:52:22;99501.16;;;17.94;35.38
67738;BME280;54534;43.612;1.572;2023-02-28T04:54:47;99509.13;;;17.94;35.72
67738;BME280;54534;43.612;1.572;2023-02-28T04:57:13;99513.63;;;17.94;35.63
67738;BME280;54534;43.612;1.572;2023-02-28T04:59:38;99503.94;;;17.93;35.73
67738;BME280;54534;43.612;1.572;2023-02-28T05:02:04;99510.97;;;17.94;35.48
67738;BME280;54534;43.612;1.572;2023-02-28T05:04:35;99510.13;;;17.93;35.87
67738;BME280;54534;43.612;1.572;2023-02-28T05:07:01;99513.72;;;17.92;35.56
67738;BME280;54534;43.612;1.572;2023-02-28T05:09:28;99511.94;;;17.93;35.99
67738;BME280;54534;43.612;1.572;2023-02-28T05:11:54;99520.75;;;17.93;35.90
67738;BME280;54534;43.612;1.572;2023-02-28T05:14:19;99523.44;;;17.93;36.05
67738;BME280;54534;43.612;1.572;2023-02-28T05:16:45;99518.19;;;17.92;35.50
67738;BME280;54534;43.612;1.572;2023-02-28T05:19:10;99516.38;;;17.92;35.49
67738;BME280;54534;43.612;1.572;2023-02-28T05:21:38;99509.25;;;17.93;35.95
67738;BME280;54534;43.612;1.572;2023-02-28T05:24:11;99509.25;;;17.93;35.73
67738;BME280;54534;43.612;1.572;2023-02-28T05:26:40;99519.91;;;17.93;35.64
67738;BME280;54534;43.612;1.572;2023-02-28T05:29:06;99525.34;;;17.91;35.43
67738;BME280;54534;43.612;1.572;2023-02-28T05:31:32;99525.22;;;17.93;35.52
67738;BME280;54534;43.612;1.572;2023-02-28T05:33:57;99527.88;;;17.93;35.84
67738;BME280;54534;43.612;1.572;2023-02-28T05:36:23;99521.72;;;17.92;35.78
67738;BME280;54534;43.612;1.572;2023-02-28T05:38:49;99528.97;;;17.90;35.71
67738;BME280;54534;43.612;1.572;2023-02-28T05:41:16;99536.81;;;17.92;35.72
67738;BME280;54534;43.612;1.572;2023-02-28T05:43:41;99537.78;;;17.90;35.90
67738;BME280;54534;43.612;1.572;2023-02-28T05:46:09;99545.66;;;17.92;35.49
67738;BME280;54534;43.612;1.572;2023-02-28T05:48:35;99537.78;;;17.90;35.68
67738;BME280;54534;43.612;1.572;2023-02-28T05:51:02;99535.22;;;17.89;35.69
67738;BME280;54534;43.612;1.572;2023-02-28T05:53:28;99540.47;;;17.90;35.39
67738;BME280;54534;43.612;1.572;2023-02-28T05:55:54;99544.06;;;17.89;35.83
67738;BME280;54534;43.612;1.572;2023-02-28T05:58:19;99547.59;;;17.90;35.36
67738;BME280;54534;43.612;1.572;2023-02-28T06:00:45;99537.88;;;17.89;35.57
67738;BME280;54534;43.612;1.572;2023-02-28T06:03:10;99536.09;;;17.89;35.49
67738;BME280;54534;43.612;1.572;2023-02-28T06:05:36;99537.88;;;17.89;35.49
67738;BME280;54534;43.612;1.572;2023-02-28T06:08:01;99528.22;;;17.88;35.61
67738;BME280;54534;43.612;1.572;2023-02-28T06:10:27;99542.38;;;17.88;35.59
67738;BME280;54534;43.612;1.572;2023-02-28T06:12:52;99537.06;;;17.88;35.35
67738;BME280;54534;43.612;1.572;2023-02-28T06:15:17;99538.75;;;17.89;35.94
67738;BME280;54534;43.612;1.572;2023-02-28T06:17:44;99538.75;;;17.89;35.98
67738;BME280;54534;43.612;1.572;2023-02-28T06:20:10;99533.41;;;17.89;35.82
67738;BME280;54534;43.612;1.572;2023-02-28T06:22:38;99542.25;;;17.90;35.93
67738;BME280;54534;43.612;1.572;2023-02-28T06:25:05;99538.75;;;17.89;35.90
67738;BME280;54534;43.612;1.572;2023-02-28T06:27:32;99547.47;;;17.92;35.85
67738;BME280;54534;43.612;1.572;2023-02-28T06:29:57;99548.44;;;17.90;36.16
67738;BME280;54534;43.612;1.572;2023-02-28T06:32:23;99550.13;;;17.92;36.39
67738;BME280;54534;43.612;1.572;2023-02-28T06:34:48;99554.50;;;17.93;36.43
67738;BME280;54534;43.612;1.572;2023-02-28T06:37:14;99554.50;;;17.93;36.47
67738;BME280;54534;43.612;1.572;2023-02-28T06:39:39;99564.06;;;17.95;36.03
67738;BME280;54534;43.612;1.572;2023-02-28T06:42:05;99559.59;;;17.96;36.27
67738;BME280;54534;43.612;1.572;2023-02-28T06:44:30;99563.00;;;17.98;36.09
67738;BME280;54534;43.612;1.572;2023-02-28T06:47:04;99566.50;;;17.98;36.36
67738;BME280;54534;43.612;1.572;2023-02-28T06:49:31;99565.53;;;17.99;36.21
67738;BME280;54534;43.612;1.572;2023-02-28T06:51:57;99565.31;;;18.03;36.39
67738;BME280;54534;43.612;1.572;2023-02-28T06:54:22;99572.34;;;18.04;36.07
67738;BME280;54534;43.612;1.572;2023-02-28T06:56:47;99573.19;;;18.04;36.00
67738;BME280;54534;43.612;1.572;2023-02-28T06:59:14;99572.22;;;18.05;35.92
67738;BME280;54534;43.612;1.572;2023-02-28T07:01:39;99576.59;;;18.06;36.03
67738;BME280;54534;43.612;1.572;2023-02-28T07:04:05;99577.31;;;18.08;36.35
67738;BME280;54534;43.612;1.572;2023-02-28T07:06:31;99584.34;;;18.09;36.15
67738;BME280;54534;43.612;1.572;2023-02-28T07:08:57;99579.03;;;18.09;36.41
67738;BME280;54534;43.612;1.572;2023-02-28T07:11:25;99583.38;;;18.10;36.22
67738;BME280;54534;43.612;1.572;2023-02-28T07:13:54;99582.31;;;18.13;35.73
67738;BME280;54534;43.612;1.572;2023-02-28T07:16:20;99577.84;;;18.14;36.50
67738;BME280;54534;43.612;1.572;2023-02-28T07:18:46;99576.97;;;18.13;35.89
67738;BME280;54534;43.612;1.572;2023-02-28T07:21:12;99576.03;;;18.14;36.39
67738;BME280;54534;43.612;1.572;2023-02-28T07:23:38;99578.69;;;18.14;36.23
67738;BME280;54534;43.612;1.572;2023-02-28T07:26:05;99579.56;;;18.15;35.87
67738;BME280;54534;43.612;1.572;2023-02-28T07:28:30;99585.59;;;18.17;36.10
67738;BME280;54534;43.612;1.572;2023-02-28T07:30:56;99588.25;;;18.17;35.93
67738;BME280;54534;43.612;1.572;2023-02-28T07:33:21;99588.25;;;18.17;35.63
67738;BME280;54534;43.612;1.572;2023-02-28T07:35:47;99584.66;;;18.18;36.11
67738;BME280;54534;43.612;1.572;2023-02-28T07:38:12;99589.97;;;18.18;36.04
67738;BME280;54534;43.612;1.572;2023-02-28T07:40:39;99591.66;;;18.19;35.88
67738;BME280;54534;43.612;1.572;2023-02-28T07:43:05;99587.19;;;18.19;35.92
67738;BME280;54534;43.612;1.572;2023-02-28T07:45:30;99601.34;;;18.20;35.58
67738;BME280;54534;43.612;1.572;2023-02-28T07:47:57;99593.38;;;18.20;35.61
67738;BME280;54534;43.612;1.572;2023-02-28T07:50:22;99591.59;;;18.20;35.67
67738;BME280;54534;43.612;1.572;2023-02-28T07:52:48;99591.59;;;18.20;35.61
67738;BME280;54534;43.612;1.572;2023-02-28T07:55:13;99589.75;;;18.21;35.66
67738;BME280;54534;43.612;1.572;2023-02-28T07:57:40;99596.78;;;18.22;35.42
67738;BME280;54534;43.612;1.572;2023-02-28T08:00:08;99594.25;;;18.20;35.37
67738;BME280;54534;43.612;1.572;2023-02-28T08:02:38;99603.84;;;18.23;35.32
67738;BME280;54534;43.612;1.572;2023-02-28T08:05:04;99601.25;;;18.21;35.51
67738;BME280;54534;43.612;1.572;2023-02-28T08:07:30;99605.63;;;18.22;35.47
67738;BME280;54534;43.612;1.572;2023-02-28T08:09:55;99610.84;;;18.24;35.38
67738;BME280;54534;43.612;1.572;2023-02-28T08:12:20;99610.84;;;18.24;35.46
67738;BME280;54534;43.612;1.572;2023-02-28T08:14:46;99617.00;;;18.25;35.75
67738;BME280;54534;43.612;1.572;2023-02-28T08:17:12;99609.03;;;18.25;35.59
67738;BME280;54534;43.612;1.572;2023-02-28T08:19:37;99608.09;;;18.26;35.65
67738;BME280;54534;43.612;1.572;2023-02-28T08:22:03;99614.22;;;18.26;35.23
67738;BME280;54534;43.612;1.572;2023-02-28T08:24:29;99616.06;;;18.26;35.52
67738;BME280;54534;43.612;1.572;2023-02-28T08:26:55;99613.28;;;18.27;35.38
67738;BME280;54534;43.612;1.572;2023-02-28T08:29:20;99613.28;;;18.27;35.57
67738;BME280;54534;43.612;1.572;2023-02-28T08:31:45;99610.63;;;18.27;35.52
67738;BME280;54534;43.612;1.572;2023-02-28T08:34:13;99604.44;;;18.27;35.29
67738;BME280;54534;43.612;1.572;2023-02-28T08:36:40;99614.00;;;18.29;35.31
67738;BME280;54534;43.612;1.572;2023-02-28T08:39:06;99613.16;;;18.29;35.49
67738;BME280;54534;43.612;1.572;2023-02-28T08:41:32;99612.34;;;18.28;35.33
67738;BME280;54534;43.612;1.572;2023-02-28T08:43:58;99614.00;;;18.29;35.19
67738;BME280;54534;43.612;1.572;2023-02-28T08:46:24;99621.91;;;18.31;35.14
67738;BME280;54534;43.612;1.572;2023-02-28T08:48:54;99621.06;;;18.30;35.37
67738;BME280;54534;43.612;1.572;2023-02-28T08:51:21;99620.06;;;18.31;35.12
67738;BME280;54534;43.612;1.572;2023-02-28T08:53:55;99621.91;;;18.31;35.12
67738;BME280;54534;43.612;1.572;2023-02-28T08:56:22;99624.56;;;18.31;35.48
67738;BME280;54534;43.612;1.572;2023-02-28T08:58:49;99633.38;;;18.31;35.26
67738;BME280;54534;43.612;1.572;2023-02-28T09:03:42;99630.63;;;18.33;34.98
67738;BME280;54534;43.612;1.572;2023-02-28T09:06:08;99625.28;;;18.33;35.39
67738;BME280;54534;43.612;1.572;2023-02-28T09:08:34;99625.28;;;18.33;35.22
67738;BME280;54534;43.612;1.572;2023-02-28T09:11:00;99622.50;;;18.34;35.34
67738;BME280;54534;43.612;1.572;2023-02-28T09:13:27;99621.78;;;18.32;34.98
67738;BME280;54534;43.612;1.572;2023-02-28T09:15:53;99618.03;;;18.35;35.00
67738;BME280;54534;43.612;1.572;2023-02-28T09:18:20;99627.84;;;18.34;34.89
67738;BME280;54534;43.612;1.572;2023-02-28T09:20:45;99633.91;;;18.37;35.24
67738;BME280;54534;43.612;1.572;2023-02-28T09:23:12;99641.78;;;18.38;35.01
67738;BME280;54534;43.612;1.572;2023-02-28T09:25:44;99641.88;;;18.37;35.26
67738;BME280;54534;43.612;1.572;2023-02-28T09:28:10;99640.94;;;18.38;35.26
67738;BME280;54534;43.612;1.572;2023-02-28T09:30:36;99638.28;;;18.38;35.03
67738;BME280;54534;43.612;1.572;2023-02-28T09:33:02;99648.91;;;18.38;35.25
67738;BME280;54534;43.612;1.572;2023-02-28T09:35:28;99640.84;;;18.39;35.08
67738;BME280;54534;43.612;1.572;2023-02-28T09:37:56;99651.50;;;18.39;35.39
67738;BME280;54534;43.612;1.572;2023-02-28T09:40:24;99647.00;;;18.40;35.30
67738;BME280;54534;43.612;1.572;2023-02-28T09:42:55;99649.56;;;18.41;34.83
67738;BME280;54534;43.612;1.572;2023-02-28T09:45:27;99651.38;;;18.41;35.10
67738;BME280;54534;43.612;1.572;2023-02-28T09:47:56;99651.38;;;18.41;34.88
67738;BME280;54534;43.612;1.572;2023-02-28T09:51:09;99655.94;;;18.39;34.89
67738;BME280;54534;43.612;1.572;2023-02-28T09:53:36;99653.06;;;18.42;35.31
67738;BME280;54534;43.612;1.572;2023-02-28T09:56:07;99656.56;;;18.42;34.90
67738;BME280;54534;43.612;1.572;2023-02-28T09:58:42;99656.56;;;18.42;34.98
67738;BME280;54534;43.612;1.572;2023-02-28T10:10:02;99649.44;;;18.43;35.26
67738;BME280;54534;43.612;1.572;2023-02-28T10:12:30;99653.81;;;18.44;35.41
67738;BME280;54534;43.612;1.572;2023-02-28T10:14:58;99650.16;;;18.45;35.22
67738;BME280;54534;43.612;1.572;2023-02-28T10:17:37;99655.50;;;18.45;35.34
67738;BME280;54534;43.612;1.572;2023-02-28T10:20:18;99654.41;;;18.48;34.99
67738;BME280;54534;43.612;1.572;2023-02-28T10:23:02;99658.91;;;18.47;34.92
67738;BME280;54534;43.612;1.572;2023-02-28T10:25:35;99663.25;;;18.48;35.27
67738;BME280;54534;43.612;1.572;2023-02-28T10:28:08;99662.41;;;18.48;35.18
67738;BME280;54534;43.612;1.572;2023-02-28T10:30:36;99667.72;;;18.48;35.32
67738;BME280;54534;43.612;1.572;2023-02-28T10:33:03;99665.91;;;18.48;35.05
67738;BME280;54534;43.612;1.572;2023-02-28T10:35:29;99664.97;;;18.49;35.27
67738;BME280;54534;43.612;1.572;2023-02-28T10:37:57;99670.28;;;18.49;35.21
67738;BME280;54534;43.612;1.572;2023-02-28T10:45:38;99656.00;;;18.50;35.10
67738;BME280;54534;43.612;1.572;2023-02-28T10:48:05;99647.19;;;18.50;35.25
67738;BME280;54534;43.612;1.572;2023-02-28T10:51:05;99653.34;;;18.50;34.88
67738;BME280;54534;43.612;1.572;2023-02-28T10:53:51;99655.91;;;18.52;34.75
67738;BME280;54534;43.612;1.572;2023-02-28T10:56:22;99659.53;;;18.51;34.83
67738;BME280;54534;43.612;1.572;2023-02-28T10:59:00;99656.75;;;18.52;35.11
67738;BME280;54534;43.612;1.572;2023-02-28T11:01:43;99654.19;;;18.51;34.89
67738;BME280;54534;43.612;1.572;2023-02-28T11:04:18;99656.75;;;18.52;34.78
67738;BME280;54534;43.612;1.572;2023-02-28T11:06:44;99656.75;;;18.52;34.96
67738;BME280;54534;43.612;1.572;2023-02-28T11:09:23;99659.44;;;18.52;34.83
67738;BME280;54534;43.612;1.572;2023-02-28T11:11:49;99653.13;;;18.53;34.78
67738;BME280;54534;43.612;1.572;2023-02-28T11:14:27;99647.78;;;18.53;34.88
67738;BME280;54534;43.612;1.572;2023-02-28T11:16:53;99651.31;;;18.54;34.62
67738;BME280;54534;43.612;1.572;2023-02-28T11:19:28;99656.50;;;18.55;34.93
67738;BME280;54534;43.612;1.572;2023-02-28T11:21:59;99652.03;;;18.56;34.63
67738;BME280;54534;43.612;1.572;2023-02-28T11:24:31;99656.41;;;18.57;35.09
67738;BME280;54534;43.612;1.572;2023-02-28T11:26:59;99645.88;;;18.55;34.71
67738;BME280;54534;43.612;1.572;2023-02-28T11:29:33;99648.44;;;18.57;34.58
67738;BME280;54534;43.612;1.572;2023-02-28T11:34:28;99645.78;;;18.57;34.98
67738;BME280;54534;43.612;1.572;2023-02-28T11:36:58;99637.66;;;18.59;34.98
67738;BME280;54534;43.612;1.572;2023-02-28T11:39:25;99635.00;;;18.59;35.23
67738;BME280;54534;43.612;1.572;2023-02-28T11:48:15;99630.41;;;18.61;35.08
67738;BME280;54534;43.612;1.572;2023-02-28T11:56:32;99614.19;;;18.64;35.53
67738;BME280;54534;43.612;1.572;2023-02-28T12:04:44;99611.31;;;18.67;35.29
67738;BME280;54534;43.612;1.572;2023-02-28T12:12:39;99593.28;;;18.71;34.96
67738;BME280;54534;43.612;1.572;2023-02-28T12:20:53;99582.50;;;18.72;34.87
67738;BME280;54534;43.612;1.572;2023-02-28T12:29:02;99568.03;;;18.76;34.71
67738;BME280;54534;43.612;1.572;2023-02-28T12:31:34;99568.84;;;18.77;34.90
67738;BME280;54534;43.612;1.572;2023-02-28T12:34:05;99569.69;;;18.77;35.04
67738;BME280;54534;43.612;1.572;2023-02-28T12:36:33;99567.75;;;18.79;34.66
67738;BME280;54534;43.612;1.572;2023-02-28T12:39:28;99568.63;;;18.80;34.69
67738;BME280;54534;43.612;1.572;2023-02-28T12:41:58;99561.34;;;18.82;34.94
67738;BME280;54534;43.612;1.572;2023-02-28T12:44:42;99561.34;;;18.82;34.88
67738;BME280;54534;43.612;1.572;2023-02-28T12:47:14;99560.41;;;18.83;34.51
67738;BME280;54534;43.612;1.572;2023-02-28T12:49:49;99560.41;;;18.83;34.66
67738;BME280;54534;43.612;1.572;2023-02-28T12:52:23;99556.78;;;18.84;35.12
67738;BME280;54534;43.612;1.572;2023-02-28T12:57:49;99549.50;;;18.86;35.11
67738;BME280;54534;43.612;1.572;2023-02-28T13:00:19;99554.72;;;18.88;34.79
67738;BME280;54534;43.612;1.572;2023-02-28T13:10:47;99539.59;;;18.88;35.21
67738;BME280;54534;43.612;1.572;2023-02-28T13:13:28;99540.44;;;18.89;35.27
67738;BME280;54534;43.612;1.572;2023-02-28T13:16:08;99539.44;;;18.90;35.00
67738;BME280;54534;43.612;1.572;2023-02-28T13:18:43;99545.75;;;18.89;35.14
67738;BME280;54534;43.612;1.572;2023-02-28T13:21:27;99542.88;;;18.92;34.89
67738;BME280;54534;43.612;1.572;2023-02-28T13:34:28;99549.03;;;18.93;35.17
67738;BME280;54534;43.612;1.572;2023-02-28T13:39:50;99550.88;;;18.92;34.98
67738;BME280;54534;43.612;1.572;2023-02-28T13:47:36;99530.38;;;18.93;34.89
67738;BME280;54534;43.612;1.572;2023-02-28T13:55:43;99532.09;;;18.94;34.79
67738;BME280;54534;43.612;1.572;2023-02-28T14:06:30;99536.78;;;18.90;34.90
67738;BME280;54534;43.612;1.572;2023-02-28T14:11:33;99519.97;;;18.89;35.04
67738;BME280;54534;43.612;1.572;2023-02-28T14:13:59;99517.41;;;18.88;35.19
67738;BME280;54534;43.612;1.572;2023-02-28T14:16:27;99525.31;;;18.89;35.14
67738;BME280;54534;43.612;1.572;2023-02-28T14:21:24;99529.78;;;18.89;35.15
67738;BME280;54534;43.612;1.572;2023-02-28T14:24:01;99527.97;;;18.89;34.82
67738;BME280;54534;43.612;1.572;2023-02-28T14:31:44;99540.53;;;18.87;34.84
67738;BME280;54534;43.612;1.572;2023-02-28T14:34:40;99543.09;;;18.89;34.94
67738;BME280;54534;43.612;1.572;2023-02-28T14:37:15;99535.22;;;18.87;34.73
67738;BME280;54534;43.612;1.572;2023-02-28T14:39:43;99549.50;;;18.86;34.72
67738;BME280;54534;43.612;1.572;2023-02-28T14:42:34;99543.19;;;18.87;34.70
67738;BME280;54534;43.612;1.572;2023-02-28T14:45:01;99546.00;;;18.86;34.83
67738;BME280;54534;43.612;1.572;2023-02-28T14:47:35;99542.47;;;18.85;35.15
67738;BME280;54534;43.612;1.572;2023-02-28T14:50:02;99539.94;;;18.84;34.86
67738;BME280;54534;43.612;1.572;2023-02-28T14:52:30;99541.63;;;18.85;34.98
67738;BME280;54534;43.612;1.572;2023-02-28T14:55:00;99537.28;;;18.84;35.11
67738;BME280;54534;43.612;1.572;2023-02-28T14:57:29;99535.56;;;18.83;34.89
67738;BME280;54534;43.612;1.572;2023-02-28T15:02:40;99541.97;;;18.80;34.87
67738;BME280;54534;43.612;1.572;2023-02-28T15:07:47;99544.78;;;18.78;34.80
67738;BME280;54534;43.612;1.572;2023-02-28T15:13:02;99543.06;;;18.77;34.71
67738;BME280;54534;43.612;1.572;2023-02-28T15:18:02;99529.97;;;18.74;34.86
67738;BME280;54534;43.612;1.572;2023-02-28T15:20:29;99545.09;;;18.74;34.70
67738;BME280;54534;43.612;1.572;2023-02-28T15:22:56;99533.72;;;18.72;34.65
67738;BME280;54534;43.612;1.572;2023-02-28T15:25:22;99531.91;;;18.72;35.00
67738;BME280;54534;43.612;1.572;2023-02-28T15:27:57;99532.84;;;18.71;34.84
67738;BME280;54534;43.612;1.572;2023-02-28T15:30:28;99541.84;;;18.70;34.84
67738;BME280;54534;43.612;1.572;2023-02-28T15:33:23;99537.47;;;18.69;34.81
67738;BME280;54534;43.612;1.572;2023-02-28T15:35:50;99533.94;;;18.68;34.78
67738;BME280;54534;43.612;1.572;2023-02-28T15:38:25;99539.41;;;18.67;35.03
67738;BME280;54534;43.612;1.572;2023-02-28T15:40:57;99539.53;;;18.65;35.03
67738;BME280;54534;43.612;1.572;2023-02-28T15:43:23;99541.34;;;18.65;34.95
67738;BME280;54534;43.612;1.572;2023-02-28T15:45:52;99536.09;;;18.63;34.83
67738;BME280;54534;43.612;1.572;2023-02-28T15:50:53;99545.94;;;18.63;34.83
67738;BME280;54534;43.612;1.572;2023-02-28T15:53:27;99531.84;;;18.61;34.97
67738;BME280;54534;43.612;1.572;2023-02-28T15:56:29;99536.47;;;18.59;34.99
67738;BME280;54534;43.612;1.572;2023-02-28T15:59:00;99541.06;;;18.56;35.21
67738;BME280;54534;43.612;1.572;2023-02-28T16:01:32;99540.19;;;18.56;34.84